sensor_id;sensor_type;location;lat;lon;timestamp;pressure;altitude;pressure_sealevel;temperature
73685;BMP280;61985;51.070;14.064;2022-12-10T03:46:50;97692.94;;;-0.44
73685;BMP280;61985;51.070;14.064;2022-12-10T03:49:15;97688.38;;;-0.47
73685;BMP280;61985;51.070;14.064;2022-12-10T03:51:41;97686.88;;;-0.48
73685;BMP280;61985;51.070;14.064;2022-12-10T03:54:06;97694.84;;;-0.41
73685;BMP280;61985;51.070;14.064;2022-12-10T03:56:32;97687.25;;;-0.46
73685;BMP280;61985;51.070;14.064;2022-12-10T03:58:57;97680.13;;;-0.38
73685;BMP280;61985;51.070;14.064;2022-12-10T04:01:23;97676.69;;;-0.46
73685;BMP280;61985;51.070;14.064;2022-12-10T04:03:48;97676.69;;;-0.42
73685;BMP280;61985;51.070;14.064;2022-12-10T04:06:16;97676.31;;;-0.41
73685;BMP280;61985;51.070;14.064;2022-12-10T04:08:44;97681.34;;;-0.28
73685;BMP280;61985;51.070;14.064;2022-12-10T04:11:10;97679.09;;;-0.26
73685;BMP280;61985;51.070;14.064;2022-12-10T04:13:37;97675.28;;;-0.32
73685;BMP280;61985;51.070;14.064;2022-12-10T04:16:22;97676.06;;;-0.28
73685;BMP280;61985;51.070;14.064;2022-12-10T04:19:04;97688.91;;;-0.30
73685;BMP280;61985;51.070;14.064;2022-12-10T04:21:31;97685.44;;;-0.34
73685;BMP280;61985;51.070;14.064;2022-12-10T04:24:19;97687.13;;;-0.15
73685;BMP280;61985;51.070;14.064;2022-12-10T04:27:25;97680.59;;;-0.29
73685;BMP280;61985;51.070;14.064;2022-12-10T04:29:52;97680.13;;;-0.34
73685;BMP280;61985;51.070;14.064;2022-12-10T04:32:18;97676.69;;;-0.42
73685;BMP280;61985;51.070;14.064;2022-12-10T04:34:44;97682.34;;;-0.44
73685;BMP280;61985;51.070;14.064;2022-12-10T04:37:10;97669.91;;;-0.40
73685;BMP280;61985;51.070;14.064;2022-12-10T04:39:39;97680.13;;;-0.34
73685;BMP280;61985;51.070;14.064;2022-12-10T04:42:06;97679.69;;;-0.44
73685;BMP280;61985;51.070;14.064;2022-12-10T04:44:31;97673.69;;;-0.41
73685;BMP280;61985;51.070;14.064;2022-12-10T04:46:57;97676.72;;;-0.39
73685;BMP280;61985;51.070;14.064;2022-12-10T04:49:22;97673.72;;;-0.37
73685;BMP280;61985;51.070;14.064;2022-12-10T04:51:48;97675.94;;;-0.39
73685;BMP280;61985;51.070;14.064;2022-12-10T04:54:14;97671.41;;;-0.42
73685;BMP280;61985;51.070;14.064;2022-12-10T04:56:40;97675.19;;;-0.40
73685;BMP280;61985;51.070;14.064;2022-12-10T04:59:06;97671.03;;;-0.41
73685;BMP280;61985;51.070;14.064;2022-12-10T05:01:32;97672.13;;;-0.45
73685;BMP280;61985;51.070;14.064;2022-12-10T05:04:04;97672.28;;;-0.31
73685;BMP280;61985;51.070;14.064;2022-12-10T05:06:30;97660.84;;;-0.39
73685;BMP280;61985;51.070;14.064;2022-12-10T05:08:56;97667.25;;;-0.43
73685;BMP280;61985;51.070;14.064;2022-12-10T05:11:23;97664.13;;;-0.56
73685;BMP280;61985;51.070;14.064;2022-12-10T05:13:49;97661.16;;;-0.51
73685;BMP280;61985;51.070;14.064;2022-12-10T05:16:17;97672.91;;;-0.45
73685;BMP280;61985;51.070;14.064;2022-12-10T05:18:43;97671.38;;;-0.46
73685;BMP280;61985;51.070;14.064;2022-12-10T05:21:14;97669.13;;;-0.44
73685;BMP280;61985;51.070;14.064;2022-12-10T05:23:42;97664.94;;;-0.48
73685;BMP280;61985;51.070;14.064;2022-12-10T05:26:13;97662.66;;;-0.50
73685;BMP280;61985;51.070;14.064;2022-12-10T05:28:44;97660.75;;;-0.53
73685;BMP280;61985;51.070;14.064;2022-12-10T05:33:43;97664.91;;;-0.56
73685;BMP280;61985;51.070;14.064;2022-12-10T05:36:10;97675.94;;;-0.43
73685;BMP280;61985;51.070;14.064;2022-12-10T05:38:36;97678.16;;;-0.48
73685;BMP280;61985;51.070;14.064;2022-12-10T05:41:07;97681.94;;;-0.49
73685;BMP280;61985;51.070;14.064;2022-12-10T05:43:33;97686.44;;;-0.54
73685;BMP280;61985;51.070;14.064;2022-12-10T05:46:03;97692.50;;;-0.53
73685;BMP280;61985;51.070;14.064;2022-12-10T05:48:29;97684.16;;;-0.55
73685;BMP280;61985;51.070;14.064;2022-12-10T05:50:55;97676.56;;;-0.60
73685;BMP280;61985;51.070;14.064;2022-12-10T05:53:20;97682.69;;;-0.52
73685;BMP280;61985;51.070;14.064;2022-12-10T05:55:46;97678.84;;;-0.59
73685;BMP280;61985;51.070;14.064;2022-12-10T05:58:11;97681.50;;;-0.59
73685;BMP280;61985;51.070;14.064;2022-12-10T06:00:39;97681.88;;;-0.57
73685;BMP280;61985;51.070;14.064;2022-12-10T06:03:05;97678.06;;;-0.59
73685;BMP280;61985;51.070;14.064;2022-12-10T06:05:39;97690.56;;;-0.60
73685;BMP280;61985;51.070;14.064;2022-12-10T06:08:05;97676.56;;;-0.60
73685;BMP280;61985;51.070;14.064;2022-12-10T06:10:30;97676.53;;;-0.64
73685;BMP280;61985;51.070;14.064;2022-12-10T06:12:56;97676.22;;;-0.59
73685;BMP280;61985;51.070;14.064;2022-12-10T06:15:22;97680.34;;;-0.58
73685;BMP280;61985;51.070;14.064;2022-12-10T06:17:47;97687.94;;;-0.56
73685;BMP280;61985;51.070;14.064;2022-12-10T06:20:13;97686.88;;;-0.48
73685;BMP280;61985;51.070;14.064;2022-12-10T06:22:38;97681.50;;;-0.59
73685;BMP280;61985;51.070;14.064;2022-12-10T06:25:04;97685.69;;;-0.54
73685;BMP280;61985;51.070;14.064;2022-12-10T06:27:31;97684.50;;;-0.60
73685;BMP280;61985;51.070;14.064;2022-12-10T06:29:56;97689.00;;;-0.64
73685;BMP280;61985;51.070;14.064;2022-12-10T06:32:22;97684.91;;;-0.58
73685;BMP280;61985;51.070;14.064;2022-12-10T06:34:47;97698.84;;;-0.61
73685;BMP280;61985;51.070;14.064;2022-12-10T06:37:12;97699.97;;;-0.62
73685;BMP280;61985;51.070;14.064;2022-12-10T06:39:38;97701.88;;;-0.63
73685;BMP280;61985;51.070;14.064;2022-12-10T06:42:03;97702.59;;;-0.66
73685;BMP280;61985;51.070;14.064;2022-12-10T06:44:28;97708.66;;;-0.65
73685;BMP280;61985;51.070;14.064;2022-12-10T06:46:54;97707.91;;;-0.62
73685;BMP280;61985;51.070;14.064;2022-12-10T06:49:20;97709.78;;;-0.66
73685;BMP280;61985;51.070;14.064;2022-12-10T06:51:47;97707.50;;;-0.68
73685;BMP280;61985;51.070;14.064;2022-12-10T06:54:12;97712.75;;;-0.72
73685;BMP280;61985;51.070;14.064;2022-12-10T06:56:37;97722.22;;;-0.70
73685;BMP280;61985;51.070;14.064;2022-12-10T06:59:06;97717.28;;;-0.72
73685;BMP280;61985;51.070;14.064;2022-12-10T07:01:32;97714.66;;;-0.72
73685;BMP280;61985;51.070;14.064;2022-12-10T07:03:58;97721.13;;;-0.62
73685;BMP280;61985;51.070;14.064;2022-12-10T07:06:25;97721.88;;;-0.65
73685;BMP280;61985;51.070;14.064;2022-12-10T07:08:51;97722.25;;;-0.67
73685;BMP280;61985;51.070;14.064;2022-12-10T07:11:20;97726.44;;;-0.62
73685;BMP280;61985;51.070;14.064;2022-12-10T07:13:46;97724.19;;;-0.60
73685;BMP280;61985;51.070;14.064;2022-12-10T07:16:16;97727.22;;;-0.58
73685;BMP280;61985;51.070;14.064;2022-12-10T07:18:42;97731.78;;;-0.55
73685;BMP280;61985;51.070;14.064;2022-12-10T07:21:22;97722.66;;;-0.61
73685;BMP280;61985;51.070;14.064;2022-12-10T07:23:48;97727.59;;;-0.60
73685;BMP280;61985;51.070;14.064;2022-12-10T07:26:14;97724.88;;;-0.67
73685;BMP280;61985;51.070;14.064;2022-12-10T07:28:39;97723.41;;;-0.61
73685;BMP280;61985;51.070;14.064;2022-12-10T07:31:07;97725.28;;;-0.65
73685;BMP280;61985;51.070;14.064;2022-12-10T07:33:33;97730.94;;;-0.66
73685;BMP280;61985;51.070;14.064;2022-12-10T07:35:59;97736.19;;;-0.70
73685;BMP280;61985;51.070;14.064;2022-12-10T07:38:27;97730.97;;;-0.63
73685;BMP280;61985;51.070;14.064;2022-12-10T07:40:53;97733.63;;;-0.63
73685;BMP280;61985;51.070;14.064;2022-12-10T07:43:18;97735.50;;;-0.63
73685;BMP280;61985;51.070;14.064;2022-12-10T07:45:43;97729.78;;;-0.69
73685;BMP280;61985;51.070;14.064;2022-12-10T07:48:09;97739.72;;;-0.55
73685;BMP280;61985;51.070;14.064;2022-12-10T07:50:34;97736.66;;;-0.61
73685;BMP280;61985;51.070;14.064;2022-12-10T07:53:00;97743.91;;;-0.54
73685;BMP280;61985;51.070;14.064;2022-12-10T07:55:26;97747.28;;;-0.57
73685;BMP280;61985;51.070;14.064;2022-12-10T07:57:51;97744.63;;;-0.57
73685;BMP280;61985;51.070;14.064;2022-12-10T08:00:16;97738.16;;;-0.63
73685;BMP280;61985;51.070;14.064;2022-12-10T08:02:42;97741.56;;;-0.59
73685;BMP280;61985;51.070;14.064;2022-12-10T08:05:08;97736.34;;;-0.56
73685;BMP280;61985;51.070;14.064;2022-12-10T08:07:33;97739.38;;;-0.54
73685;BMP280;61985;51.070;14.064;2022-12-10T08:09:59;97741.63;;;-0.56
73685;BMP280;61985;51.070;14.064;2022-12-10T08:12:24;97744.22;;;-0.59
73685;BMP280;61985;51.070;14.064;2022-12-10T08:14:50;97745.72;;;-0.62
73685;BMP280;61985;51.070;14.064;2022-12-10T08:17:15;97754.41;;;-0.61
73685;BMP280;61985;51.070;14.064;2022-12-10T08:19:40;97744.19;;;-0.63
73685;BMP280;61985;51.070;14.064;2022-12-10T08:22:06;97744.50;;;-0.72
73685;BMP280;61985;51.070;14.064;2022-12-10T08:24:31;97745.22;;;-0.75
73685;BMP280;61985;51.070;14.064;2022-12-10T08:26:57;97749.00;;;-0.76
73685;BMP280;61985;51.070;14.064;2022-12-10T08:29:22;97750.16;;;-0.73
73685;BMP280;61985;51.070;14.064;2022-12-10T08:31:48;97745.28;;;-0.67
73685;BMP280;61985;51.070;14.064;2022-12-10T08:34:16;97757.44;;;-0.63
73685;BMP280;61985;51.070;14.064;2022-12-10T08:36:42;97754.41;;;-0.61
73685;BMP280;61985;51.070;14.064;2022-12-10T08:39:08;97745.75;;;-0.58
73685;BMP280;61985;51.070;14.064;2022-12-10T08:41:35;97757.88;;;-0.57
73685;BMP280;61985;51.070;14.064;2022-12-10T08:44:01;97762.06;;;-0.52
73685;BMP280;61985;51.070;14.064;2022-12-10T08:46:26;97759.78;;;-0.54
73685;BMP280;61985;51.070;14.064;2022-12-10T08:48:52;97757.44;;;-0.59
73685;BMP280;61985;51.070;14.064;2022-12-10T08:51:18;97767.31;;;-0.56
73685;BMP280;61985;51.070;14.064;2022-12-10T08:53:44;97771.41;;;-0.62
73685;BMP280;61985;51.070;14.064;2022-12-10T08:56:10;97767.31;;;-0.56
73685;BMP280;61985;51.070;14.064;2022-12-10T08:58:37;97775.56;;;-0.65
73685;BMP280;61985;51.070;14.064;2022-12-10T09:01:10;97788.44;;;-0.63
73685;BMP280;61985;51.070;14.064;2022-12-10T09:03:58;97783.53;;;-0.61
73685;BMP280;61985;51.070;14.064;2022-12-10T09:06:24;97779.06;;;-0.50
73685;BMP280;61985;51.070;14.064;2022-12-10T09:08:50;97780.88;;;-0.61
73685;BMP280;61985;51.070;14.064;2022-12-10T09:11:19;97782.34;;;-0.64
73685;BMP280;61985;51.070;14.064;2022-12-10T09:13:44;97786.59;;;-0.56
73685;BMP280;61985;51.070;14.064;2022-12-10T09:16:10;97788.53;;;-0.52
73685;BMP280;61985;51.070;14.064;2022-12-10T09:18:36;97792.25;;;-0.57
73685;BMP280;61985;51.070;14.064;2022-12-10T09:21:10;97776.44;;;-0.50
73685;BMP280;61985;51.070;14.064;2022-12-10T09:23:37;97777.56;;;-0.51
73685;BMP280;61985;51.070;14.064;2022-12-10T09:26:14;97773.75;;;-0.54
73685;BMP280;61985;51.070;14.064;2022-12-10T09:28:40;97787.72;;;-0.57
73685;BMP280;61985;51.070;14.064;2022-12-10T09:31:07;97780.16;;;-0.58
73685;BMP280;61985;51.070;14.064;2022-12-10T09:33:33;97775.31;;;-0.49
73685;BMP280;61985;51.070;14.064;2022-12-10T09:35:59;97778.75;;;-0.45
73685;BMP280;61985;51.070;14.064;2022-12-10T09:38:24;97791.53;;;-0.54
73685;BMP280;61985;51.070;14.064;2022-12-10T09:43:42;97786.25;;;-0.50
73685;BMP280;61985;51.070;14.064;2022-12-10T09:46:38;97780.97;;;-0.50
73685;BMP280;61985;51.070;14.064;2022-12-10T09:51:41;97774.19;;;-0.48
73685;BMP280;61985;51.070;14.064;2022-12-10T09:54:27;97771.56;;;-0.48
73685;BMP280;61985;51.070;14.064;2022-12-10T09:56:55;97766.31;;;-0.41
73685;BMP280;61985;51.070;14.064;2022-12-10T09:59:59;97768.94;;;-0.41
73685;BMP280;61985;51.070;14.064;2022-12-10T10:02:29;97767.44;;;-0.42
73685;BMP280;61985;51.070;14.064;2022-12-10T10:05:22;97774.78;;;-0.28
73685;BMP280;61985;51.070;14.064;2022-12-10T10:07:53;97769.78;;;-0.33
73685;BMP280;61985;51.070;14.064;2022-12-10T10:10:31;97777.69;;;-0.37
73685;BMP280;61985;51.070;14.064;2022-12-10T10:13:01;97777.72;;;-0.33
73685;BMP280;61985;51.070;14.064;2022-12-10T10:15:37;97771.66;;;-0.33
73685;BMP280;61985;51.070;14.064;2022-12-10T10:18:28;97773.50;;;-0.38
73685;BMP280;61985;51.070;14.064;2022-12-10T10:20:54;97766.78;;;-0.31
73685;BMP280;61985;51.070;14.064;2022-12-10T10:23:19;97761.44;;;-0.39
73685;BMP280;61985;51.070;14.064;2022-12-10T10:25:45;97761.06;;;-0.33
73685;BMP280;61985;51.070;14.064;2022-12-10T10:28:12;97761.91;;;-0.29
73685;BMP280;61985;51.070;14.064;2022-12-10T10:30:42;97756.06;;;-0.46
73685;BMP280;61985;51.070;14.064;2022-12-10T10:33:11;97767.84;;;-0.40
73685;BMP280;61985;51.070;14.064;2022-12-10T10:35:54;97759.13;;;-0.40
73685;BMP280;61985;51.070;14.064;2022-12-10T10:38:28;97759.56;;;-0.34
73685;BMP280;61985;51.070;14.064;2022-12-10T10:40:57;97750.78;;;-0.42
73685;BMP280;61985;51.070;14.064;2022-12-10T10:43:25;97751.59;;;-0.34
73685;BMP280;61985;51.070;14.064;2022-12-10T10:45:54;97757.34;;;-0.29
73685;BMP280;61985;51.070;14.064;2022-12-10T10:48:24;97749.41;;;-0.32
73685;BMP280;61985;51.070;14.064;2022-12-10T10:51:15;97760.28;;;-0.38
73685;BMP280;61985;51.070;14.064;2022-12-10T10:53:52;97758.78;;;-0.35
73685;BMP280;61985;51.070;14.064;2022-12-10T10:56:23;97755.06;;;-0.30
73685;BMP280;61985;51.070;14.064;2022-12-10T10:58:53;97754.59;;;-0.40
73685;BMP280;61985;51.070;14.064;2022-12-10T11:01:19;97761.78;;;-0.40
73685;BMP280;61985;51.070;14.064;2022-12-10T11:03:48;97761.44;;;-0.39
73685;BMP280;61985;51.070;14.064;2022-12-10T11:06:15;97764.44;;;-0.40
73685;BMP280;61985;51.070;14.064;2022-12-10T11:08:42;97761.00;;;-0.41
73685;BMP280;61985;51.070;14.064;2022-12-10T11:11:17;97753.81;;;-0.44
73685;BMP280;61985;51.070;14.064;2022-12-10T11:13:43;97758.00;;;-0.39
73685;BMP280;61985;51.070;14.064;2022-12-10T11:16:18;97756.88;;;-0.42
73685;BMP280;61985;51.070;14.064;2022-12-10T11:19:04;97756.13;;;-0.39
73685;BMP280;61985;51.070;14.064;2022-12-10T11:21:32;97756.88;;;-0.38
73685;BMP280;61985;51.070;14.064;2022-12-10T11:23:58;97765.28;;;-0.32
73685;BMP280;61985;51.070;14.064;2022-12-10T11:46:11;97766.78;;;-0.31
73685;BMP280;61985;51.070;14.064;2022-12-10T11:51:35;97766.84;;;-0.28
73685;BMP280;61985;51.070;14.064;2022-12-10T11:54:25;97760.28;;;-0.38
73685;BMP280;61985;51.070;14.064;2022-12-10T11:57:03;97757.34;;;-0.32
73685;BMP280;61985;51.070;14.064;2022-12-10T12:02:22;97761.50;;;-0.31
73685;BMP280;61985;51.070;14.064;2022-12-10T12:13:15;97758.53;;;-0.23
73685;BMP280;61985;51.070;14.064;2022-12-10T12:15:53;97767.66;;;-0.20
73685;BMP280;61985;51.070;14.064;2022-12-10T12:21:02;97754.72;;;-0.25
73685;BMP280;61985;51.070;14.064;2022-12-10T12:23:41;97754.25;;;-0.34
73685;BMP280;61985;51.070;14.064;2022-12-10T12:26:17;97756.69;;;-0.19
73685;BMP280;61985;51.070;14.064;2022-12-10T12:28:50;97756.63;;;-0.26
73685;BMP280;61985;51.070;14.064;2022-12-10T12:31:21;97755.09;;;-0.27
73685;BMP280;61985;51.070;14.064;2022-12-10T12:33:51;97761.53;;;-0.28
73685;BMP280;61985;51.070;14.064;2022-12-10T12:36:27;97757.75;;;-0.27
73685;BMP280;61985;51.070;14.064;2022-12-10T12:39:32;97757.06;;;-0.20
73685;BMP280;61985;51.070;14.064;2022-12-10T12:49:56;97742.59;;;-0.30
73685;BMP280;61985;51.070;14.064;2022-12-10T12:52:44;97744.88;;;-0.28
73685;BMP280;61985;51.070;14.064;2022-12-10T12:55:20;97756.19;;;-0.31
73685;BMP280;61985;51.070;14.064;2022-12-10T12:57:52;97752.81;;;-0.28
73685;BMP280;61985;51.070;14.064;2022-12-10T13:00:21;97753.97;;;-0.26
73685;BMP280;61985;51.070;14.064;2022-12-10T13:05:35;97749.41;;;-0.29
73685;BMP280;61985;51.070;14.064;2022-12-10T13:10:46;97758.53;;;-0.26
73685;BMP280;61985;51.070;14.064;2022-12-10T13:13:34;97759.56;;;-0.34
73685;BMP280;61985;51.070;14.064;2022-12-10T13:24:19;97765.66;;;-0.30
73685;BMP280;61985;51.070;14.064;2022-12-10T13:32:15;97769.72;;;-0.40
73685;BMP280;61985;51.070;14.064;2022-12-10T13:34:41;97770.56;;;-0.32
73685;BMP280;61985;51.070;14.064;2022-12-10T13:37:36;97775.03;;;-0.40
73685;BMP280;61985;51.070;14.064;2022-12-10T13:43:19;97776.16;;;-0.38
73685;BMP280;61985;51.070;14.064;2022-12-10T13:46:33;97780.31;;;-0.40
73685;BMP280;61985;51.070;14.064;2022-12-10T13:49:01;97781.78;;;-0.43
73685;BMP280;61985;51.070;14.064;2022-12-10T13:57:44;97794.66;;;-0.45
73685;BMP280;61985;51.070;14.064;2022-12-10T14:00:51;97783.72;;;-0.36
73685;BMP280;61985;51.070;14.064;2022-12-10T14:06:06;97790.84;;;-0.44
73685;BMP280;61985;51.070;14.064;2022-12-10T14:08:38;97803.69;;;-0.46
73685;BMP280;61985;51.070;14.064;2022-12-10T14:11:12;97801.06;;;-0.46
73685;BMP280;61985;51.070;14.064;2022-12-10T14:13:44;97805.19;;;-0.48
73685;BMP280;61985;51.070;14.064;2022-12-10T14:16:14;97806.34;;;-0.46
73685;BMP280;61985;51.070;14.064;2022-12-10T14:18:49;97806.38;;;-0.42
73685;BMP280;61985;51.070;14.064;2022-12-10T14:21:16;97801.78;;;-0.49
73685;BMP280;61985;51.070;14.064;2022-12-10T14:23:44;97805.25;;;-0.41
73685;BMP280;61985;51.070;14.064;2022-12-10T14:26:17;97804.06;;;-0.47
73685;BMP280;61985;51.070;14.064;2022-12-10T14:28:54;97811.63;;;-0.46
73685;BMP280;61985;51.070;14.064;2022-12-10T14:31:26;97813.63;;;-0.36
73685;BMP280;61985;51.070;14.064;2022-12-10T14:33:57;97817.28;;;-0.47
73685;BMP280;61985;51.070;14.064;2022-12-10T14:36:48;97820.69;;;-0.47
73685;BMP280;61985;51.070;14.064;2022-12-10T14:39:20;97820.41;;;-0.38
73685;BMP280;61985;51.070;14.064;2022-12-10T14:41:47;97818.84;;;-0.43
73685;BMP280;61985;51.070;14.064;2022-12-10T14:44:16;97812.00;;;-0.47
73685;BMP280;61985;51.070;14.064;2022-12-10T14:46:42;97819.56;;;-0.46
73685;BMP280;61985;51.070;14.064;2022-12-10T14:49:15;97824.06;;;-0.50
73685;BMP280;61985;51.070;14.064;2022-12-10T14:51:40;97824.91;;;-0.42
73685;BMP280;61985;51.070;14.064;2022-12-10T14:54:23;97825.22;;;-0.47
73685;BMP280;61985;51.070;14.064;2022-12-10T14:56:50;97835.38;;;-0.53
73685;BMP280;61985;51.070;14.064;2022-12-10T14:59:25;97831.94;;;-0.57
73685;BMP280;61985;51.070;14.064;2022-12-10T15:01:57;97835.78;;;-0.51
73685;BMP280;61985;51.070;14.064;2022-12-10T15:04:27;97834.63;;;-0.54
73685;BMP280;61985;51.070;14.064;2022-12-10T15:06:57;97831.63;;;-0.52
73685;BMP280;61985;51.070;14.064;2022-12-10T15:09:25;97830.09;;;-0.53
73685;BMP280;61985;51.070;14.064;2022-12-10T15:11:56;97843.31;;;-0.53
73685;BMP280;61985;51.070;14.064;2022-12-10T15:14:23;97830.41;;;-0.58
73685;BMP280;61985;51.070;14.064;2022-12-10T15:16:50;97835.31;;;-0.60
73685;BMP280;61985;51.070;14.064;2022-12-10T15:19:31;97826.97;;;-0.62
73685;BMP280;61985;51.070;14.064;2022-12-10T15:22:17;97838.38;;;-0.55
73685;BMP280;61985;51.070;14.064;2022-12-10T15:24:43;97842.78;;;-0.69
73685;BMP280;61985;51.070;14.064;2022-12-10T15:27:24;97835.88;;;-0.78
73685;BMP280;61985;51.070;14.064;2022-12-10T15:29:50;97833.28;;;-0.74
73685;BMP280;61985;51.070;14.064;2022-12-10T15:32:22;97829.59;;;-0.66
73685;BMP280;61985;51.070;14.064;2022-12-10T15:34:52;97827.22;;;-0.75
73685;BMP280;61985;51.070;14.064;2022-12-10T15:37:25;97828.03;;;-0.70
73685;BMP280;61985;51.070;14.064;2022-12-10T15:39:54;97834.72;;;-0.80
73685;BMP280;61985;51.070;14.064;2022-12-10T15:42:41;97835.16;;;-0.75
73685;BMP280;61985;51.070;14.064;2022-12-10T15:45:23;97840.44;;;-0.75
73685;BMP280;61985;51.070;14.064;2022-12-10T15:47:51;97842.22;;;-0.86
73685;BMP280;61985;51.070;14.064;2022-12-10T15:50:17;97850.59;;;-0.80
73685;BMP280;61985;51.070;14.064;2022-12-10T15:52:43;97852.53;;;-0.77
73685;BMP280;61985;51.070;14.064;2022-12-10T15:55:11;97860.41;;;-0.81
73685;BMP280;61985;51.070;14.064;2022-12-10T15:57:38;97846.81;;;-0.79
73685;BMP280;61985;51.070;14.064;2022-12-10T16:00:16;97857.03;;;-0.78
73685;BMP280;61985;51.070;14.064;2022-12-10T16:03:00;97863.38;;;-0.86
73685;BMP280;61985;51.070;14.064;2022-12-10T16:05:30;97868.22;;;-0.92
73685;BMP280;61985;51.070;14.064;2022-12-10T16:08:05;97866.72;;;-0.93
73685;BMP280;61985;51.070;14.064;2022-12-10T16:10:32;97871.63;;;-0.91
73685;BMP280;61985;51.070;14.064;2022-12-10T16:13:03;97867.47;;;-0.92
73685;BMP280;61985;51.070;14.064;2022-12-10T16:15:32;97879.97;;;-0.89
73685;BMP280;61985;51.070;14.064;2022-12-10T16:18:01;97882.50;;;-0.96
73685;BMP280;61985;51.070;14.064;2022-12-10T16:20:29;97884.41;;;-0.97
73685;BMP280;61985;51.070;14.064;2022-12-10T16:22:56;97878.72;;;-0.99
73685;BMP280;61985;51.070;14.064;2022-12-10T16:25:23;97885.84;;;-1.03
73685;BMP280;61985;51.070;14.064;2022-12-10T16:27:49;97890.38;;;-1.03
73685;BMP280;61985;51.070;14.064;2022-12-10T16:33:10;97896.81;;;-1.01
73685;BMP280;61985;51.070;14.064;2022-12-10T16:35:36;97890.72;;;-1.05
73685;BMP280;61985;51.070;14.064;2022-12-10T16:38:01;97897.53;;;-1.04
73685;BMP280;61985;51.070;14.064;2022-12-10T16:40:28;97893.72;;;-1.06
73685;BMP280;61985;51.070;14.064;2022-12-10T16:42:54;97898.31;;;-1.03
73685;BMP280;61985;51.070;14.064;2022-12-10T16:45:25;97891.38;;;-1.12
73685;BMP280;61985;51.070;14.064;2022-12-10T16:47:50;97892.91;;;-1.11
73685;BMP280;61985;51.070;14.064;2022-12-10T16:50:17;97900.50;;;-1.09
73685;BMP280;61985;51.070;14.064;2022-12-10T16:52:43;97892.16;;;-1.11
73685;BMP280;61985;51.070;14.064;2022-12-10T16:55:13;97894.84;;;-1.08
73685;BMP280;61985;51.070;14.064;2022-12-10T16:57:39;97890.59;;;-1.16
73685;BMP280;61985;51.070;14.064;2022-12-10T17:00:10;97893.53;;;-1.21
73685;BMP280;61985;51.070;14.064;2022-12-10T17:02:35;97897.66;;;-1.23
73685;BMP280;61985;51.070;14.064;2022-12-10T17:05:01;97901.09;;;-1.19
73685;BMP280;61985;51.070;14.064;2022-12-10T17:07:26;97914.03;;;-1.14
73685;BMP280;61985;51.070;14.064;2022-12-10T17:09:52;97909.81;;;-1.19
73685;BMP280;61985;51.070;14.064;2022-12-10T17:12:17;97911.28;;;-1.21
73685;BMP280;61985;51.070;14.064;2022-12-10T17:14:44;97915.50;;;-1.17
73685;BMP280;61985;51.070;14.064;2022-12-10T17:17:15;97907.88;;;-1.22
73685;BMP280;61985;51.070;14.064;2022-12-10T17:19:41;97916.31;;;-1.13
73685;BMP280;61985;51.070;14.064;2022-12-10T17:22:08;97917.75;;;-1.19
73685;BMP280;61985;51.070;14.064;2022-12-10T17:24:34;97911.69;;;-1.19
73685;BMP280;61985;51.070;14.064;2022-12-10T17:27:13;97912.47;;;-1.19
73685;BMP280;61985;51.070;14.064;2022-12-10T17:29:41;97917.75;;;-1.19
73685;BMP280;61985;51.070;14.064;2022-12-10T17:32:12;97909.09;;;-1.16
73685;BMP280;61985;51.070;14.064;2022-12-10T17:34:38;97917.44;;;-1.14
73685;BMP280;61985;51.070;14.064;2022-12-10T17:37:15;97909.00;;;-1.23
73685;BMP280;61985;51.070;14.064;2022-12-10T17:39:41;97900.00;;;-1.18
73685;BMP280;61985;51.070;14.064;2022-12-10T17:42:08;97902.16;;;-1.24
73685;BMP280;61985;51.070;14.064;2022-12-10T17:44:34;97892.03;;;-1.22
73685;BMP280;61985;51.070;14.064;2022-12-10T17:46:59;97899.19;;;-1.22
73685;BMP280;61985;51.070;14.064;2022-12-10T17:49:25;97904.88;;;-1.20
73685;BMP280;61985;51.070;14.064;2022-12-10T17:51:51;97902.13;;;-1.28
73685;BMP280;61985;51.070;14.064;2022-12-10T17:54:17;97899.97;;;-1.22
73685;BMP280;61985;51.070;14.064;2022-12-10T17:56:43;97899.50;;;-1.28
73685;BMP280;61985;51.070;14.064;2022-12-10T17:59:12;97905.53;;;-1.27
73685;BMP280;61985;51.070;14.064;2022-12-10T18:01:38;97907.03;;;-1.30
73685;BMP280;61985;51.070;14.064;2022-12-10T18:04:03;97907.78;;;-1.29
73685;BMP280;61985;51.070;14.064;2022-12-10T18:06:29;97912.34;;;-1.26
73685;BMP280;61985;51.070;14.064;2022-12-10T18:08:58;97908.59;;;-1.25
73685;BMP280;61985;51.070;14.064;2022-12-10T18:11:30;97909.72;;;-1.26
73685;BMP280;61985;51.070;14.064;2022-12-10T18:13:56;97911.59;;;-1.27
73685;BMP280;61985;51.070;14.064;2022-12-10T18:16:26;97917.94;;;-1.31
73685;BMP280;61985;51.070;14.064;2022-12-10T18:18:58;97917.63;;;-1.26
73685;BMP280;61985;51.070;14.064;2022-12-10T18:21:23;97920.28;;;-1.26
73685;BMP280;61985;51.070;14.064;2022-12-10T18:23:49;97919.88;;;-1.28
73685;BMP280;61985;51.070;14.064;2022-12-10T18:26:18;97904.03;;;-1.28
73685;BMP280;61985;51.070;14.064;2022-12-10T18:28:56;97914.63;;;-1.24
73685;BMP280;61985;51.070;14.064;2022-12-10T18:31:24;97916.09;;;-1.27
73685;BMP280;61985;51.070;14.064;2022-12-10T18:33:54;97912.75;;;-1.24
73685;BMP280;61985;51.070;14.064;2022-12-10T18:36:27;97925.59;;;-1.22
73685;BMP280;61985;51.070;14.064;2022-12-10T18:38:54;97916.09;;;-1.27
73685;BMP280;61985;51.070;14.064;2022-12-10T18:41:21;97912.31;;;-1.30
73685;BMP280;61985;51.070;14.064;2022-12-10T18:43:46;97910.81;;;-1.27
73685;BMP280;61985;51.070;14.064;2022-12-10T18:46:17;97915.88;;;-1.15
73685;BMP280;61985;51.070;14.064;2022-12-10T18:48:43;97911.63;;;-1.23
73685;BMP280;61985;51.070;14.064;2022-12-10T18:51:11;97910.88;;;-1.23
73685;BMP280;61985;51.070;14.064;2022-12-10T18:53:37;97910.94;;;-1.20
73685;BMP280;61985;51.070;14.064;2022-12-10T18:56:02;97902.59;;;-1.22
73685;BMP280;61985;51.070;14.064;2022-12-10T18:58:28;97906.34;;;-1.23
73685;BMP280;61985;51.070;14.064;2022-12-10T19:00:53;97903.38;;;-1.18
73685;BMP280;61985;51.070;14.064;2022-12-10T19:03:19;97912.47;;;-1.19
73685;BMP280;61985;51.070;14.064;2022-12-10T19:05:44;97906.03;;;-1.18
73685;BMP280;61985;51.070;14.064;2022-12-10T19:08:12;97905.59;;;-1.23
73685;BMP280;61985;51.070;14.064;2022-12-10T19:10:38;97908.25;;;-1.23
73685;BMP280;61985;51.070;14.064;2022-12-10T19:13:04;97903.81;;;-1.16
73685;BMP280;61985;51.070;14.064;2022-12-10T19:15:29;97907.75;;;-1.33
73685;BMP280;61985;51.070;14.064;2022-12-10T19:17:55;97904.75;;;-1.31
73685;BMP280;61985;51.070;14.064;2022-12-10T19:20:24;97904.38;;;-1.30
73685;BMP280;61985;51.070;14.064;2022-12-10T19:22:51;97893.44;;;-1.28